Time;durP1;ratioP1;P1;durP2;ratioP2;P2;SDS_P1;SDS_P2;PMS_P1;PMS_P2;Temp;Humidity;BMP_temperature;BMP_pressure;BME280_temperature;BME280_humidity;BME280_pressure;Samples;Min_cycle;Max_cycle;Signal;HPM_P1;HPM_P2
2023/09/17 00:02:37;;;;;;;9.83;9.23;;;17.20;74.30;;;;;;6014949;29;20336;-81
2023/09/17 00:05:40;;;;;;;8.60;8.10;;;17.20;74.30;;;;;;6014315;29;20384;-82
2023/09/17 00:08:44;;;;;;;9.03;8.43;;;17.20;74.30;;;;;;6014501;29;20874;-83
2023/09/17 00:11:48;;;;;;;9.50;8.90;;;17.00;74.40;;;;;;6015193;29;20230;-83
2023/09/17 00:14:52;;;;;;;9.63;8.93;;;17.00;74.50;;;;;;6020621;29;20378;-83
2023/09/17 00:17:55;;;;;;;10.10;9.20;;;17.00;74.60;;;;;;6017153;29;20241;-83
2023/09/17 00:20:58;;;;;;;10.33;9.53;;;17.00;74.70;;;;;;6011842;29;20385;-82
2023/09/17 00:24:01;;;;;;;9.43;8.77;;;17.00;74.80;;;;;;6009353;29;20325;-82
2023/09/17 00:27:06;;;;;;;9.83;9.13;;;17.00;74.80;;;;;;6014800;29;20234;-81
2023/09/17 00:30:11;;;;;;;9.60;9.00;;;17.00;74.80;;;;;;6010072;29;20413;-80
2023/09/17 00:33:14;;;;;;;8.77;8.07;;;16.90;74.90;;;;;;6007376;29;20856;-83
2023/09/17 00:36:17;;;;;;;8.83;8.23;;;16.90;74.90;;;;;;6008293;29;20237;-82
2023/09/17 00:39:20;;;;;;;8.43;7.93;;;16.90;74.80;;;;;;6015766;29;20328;-81
2023/09/17 00:42:25;;;;;;;8.47;7.97;;;16.90;74.80;;;;;;6007622;29;20745;-82
2023/09/17 00:45:29;;;;;;;9.53;8.73;;;16.90;74.90;;;;;;6015995;29;20245;-82
2023/09/17 00:48:32;;;;;;;10.53;9.63;;;16.90;75.00;;;;;;6019340;29;20272;-80
2023/09/17 00:51:35;;;;;;;9.17;8.53;;;16.80;75.10;;;;;;6011806;29;20268;-82
2023/09/17 00:54:39;;;;;;;9.30;8.77;;;16.80;75.00;;;;;;6007041;29;20252;-80
2023/09/17 00:57:45;;;;;;;8.57;8.10;;;16.80;75.00;;;;;;6010707;29;20280;-83
2023/09/17 01:00:48;;;;;;;9.50;8.90;;;16.80;74.90;;;;;;5999798;29;20245;-82
2023/09/17 01:03:52;;;;;;;8.73;8.23;;;16.70;75.00;;;;;;6012172;29;20240;-83
2023/09/17 01:06:58;;;;;;;8.70;8.20;;;16.70;75.00;;;;;;6003543;29;20244;-82
2023/09/17 01:10:02;;;;;;;9.00;8.40;;;16.60;75.10;;;;;;6016001;29;20245;-84
2023/09/17 01:13:09;;;;;;;8.73;8.23;;;16.60;75.00;;;;;;6013049;29;20854;-84
2023/09/17 01:16:13;;;;;;;9.10;8.60;;;16.50;75.10;;;;;;6016262;29;20253;-85
2023/09/17 01:19:22;;;;;;;10.13;9.43;;;16.50;75.20;;;;;;6014444;29;20244;-82
2023/09/17 01:22:29;;;;;;;9.17;8.57;;;16.50;75.40;;;;;;6008263;29;20663;-83
2023/09/17 01:25:46;;;;;;;9.60;8.93;;;16.40;75.50;;;;;;6016238;29;20332;-81
2023/09/17 01:28:53;;;;;;;9.60;9.00;;;16.40;75.80;;;;;;6019704;29;20242;-82
2023/09/17 01:32:02;;;;;;;9.47;8.77;;;16.40;75.80;;;;;;6014835;29;20250;-83
2023/09/17 01:35:06;;;;;;;8.93;8.27;;;16.40;75.80;;;;;;6011192;29;20383;-83
2023/09/17 01:38:13;;;;;;;9.90;9.30;;;16.30;75.90;;;;;;6009321;29;20249;-83
2023/09/17 01:41:18;;;;;;;10.60;9.70;;;16.20;76.00;;;;;;6005328;29;20233;-83
2023/09/17 01:44:24;;;;;;;10.73;10.10;;;16.20;76.10;;;;;;6003360;29;20239;-82
2023/09/17 01:47:28;;;;;;;11.40;10.53;;;16.20;76.10;;;;;;6010493;29;20791;-83
2023/09/17 01:50:32;;;;;;;10.47;9.77;;;16.20;76.20;;;;;;6013226;29;20243;-82
2023/09/17 01:53:36;;;;;;;11.27;10.47;;;16.20;76.20;;;;;;6011020;29;20252;-84
2023/09/17 01:56:39;;;;;;;10.93;10.20;;;16.20;76.20;;;;;;6012470;29;20283;-81
2023/09/17 01:59:44;;;;;;;10.30;9.60;;;16.10;76.40;;;;;;6016814;29;20389;-81
2023/09/17 02:02:48;;;;;;;11.27;10.37;;;16.10;76.50;;;;;;6013266;29;20996;-84
2023/09/17 02:05:51;;;;;;;12.40;11.37;;;16.10;76.60;;;;;;6008242;29;20240;-84
2023/09/17 02:08:56;;;;;;;10.97;10.27;;;16.10;76.70;;;;;;6015671;29;20249;-82
2023/09/17 02:11:59;;;;;;;10.33;9.63;;;16.10;76.80;;;;;;6018876;29;20258;-84
2023/09/17 02:15:04;;;;;;;11.10;10.30;;;16.00;76.90;;;;;;6008921;29;20230;-82
2023/09/17 02:18:08;;;;;;;10.70;10.00;;;16.00;77.00;;;;;;6008311;29;20774;-83
2023/09/17 02:21:11;;;;;;;11.10;10.37;;;16.00;77.10;;;;;;6017330;29;20312;-84
2023/09/17 02:24:14;;;;;;;11.07;10.17;;;16.00;77.20;;;;;;6011066;29;20384;-83
2023/09/17 02:27:18;;;;;;;10.57;9.87;;;16.00;77.30;;;;;;6017806;29;20640;-84
2023/09/17 02:30:22;;;;;;;11.63;10.77;;;15.90;77.40;;;;;;6009491;29;20323;-85
2023/09/17 02:33:25;;;;;;;10.97;10.30;;;15.90;77.60;;;;;;6017117;29;20237;-80
2023/09/17 02:36:28;;;;;;;10.43;9.83;;;15.90;77.60;;;;;;6002337;29;20674;-83
2023/09/17 02:39:32;;;;;;;10.63;9.87;;;15.80;77.60;;;;;;6016586;29;20332;-84
2023/09/17 02:42:35;;;;;;;9.80;9.20;;;15.80;77.70;;;;;;6014565;29;20248;-84
2023/09/17 02:45:39;;;;;;;11.17;10.40;;;15.80;77.80;;;;;;6016247;29;20248;-84
2023/09/17 02:48:42;;;;;;;11.33;10.53;;;15.80;77.90;;;;;;6005452;29;20245;-82
2023/09/17 02:51:45;;;;;;;10.77;9.97;;;15.80;77.90;;;;;;6013889;29;20617;-82
2023/09/17 02:54:49;;;;;;;10.40;9.60;;;15.80;78.00;;;;;;6020360;29;20287;-84
2023/09/17 02:57:52;;;;;;;10.30;9.67;;;15.80;78.00;;;;;;6016040;29;20730;-81
2023/09/17 03:00:56;;;;;;;12.27;11.37;;;15.70;78.00;;;;;;6013667;29;20255;-82
2023/09/17 03:04:00;;;;;;;12.30;11.30;;;15.70;78.70;;;;;;6015323;29;20650;-83
2023/09/17 03:07:04;;;;;;;11.47;10.70;;;15.80;78.40;;;;;;6015900;29;20320;-83
2023/09/17 03:10:11;;;;;;;10.80;10.10;;;15.80;78.40;;;;;;6013656;29;20252;-84
2023/09/17 03:13:14;;;;;;;10.00;9.40;;;15.80;78.40;;;;;;6009338;29;20300;-82
2023/09/17 03:16:19;;;;;;;10.53;9.83;;;15.70;78.40;;;;;;6023014;29;20259;-82
2023/09/17 03:19:22;;;;;;;10.57;9.80;;;15.60;78.30;;;;;;6023747;29;20251;-83
2023/09/17 03:22:28;;;;;;;10.50;9.80;;;15.70;78.50;;;;;;6001171;29;20818;-82
2023/09/17 03:25:31;;;;;;;10.97;10.27;;;15.60;78.40;;;;;;6008054;29;20709;-82
2023/09/17 03:28:35;;;;;;;11.20;10.40;;;15.60;78.50;;;;;;6015790;29;20237;-83
2023/09/17 03:31:41;;;;;;;10.20;9.40;;;15.60;78.50;;;;;;6007699;29;20892;-81
2023/09/17 03:34:46;;;;;;;9.40;8.70;;;15.60;78.60;;;;;;6014368;29;20297;-83
2023/09/17 03:37:50;;;;;;;10.87;10.17;;;15.60;78.60;;;;;;6015266;29;20253;-84
2023/09/17 03:40:54;;;;;;;10.97;10.27;;;15.60;78.60;;;;;;6009978;29;20245;-83
2023/09/17 03:43:57;;;;;;;9.97;9.40;;;15.60;78.60;;;;;;6005598;29;20242;-82
2023/09/17 03:47:03;;;;;;;11.67;10.77;;;15.50;78.60;;;;;;6007079;29;20261;-82
2023/09/17 03:50:08;;;;;;;11.20;10.43;;;15.60;78.60;;;;;;6010065;29;20240;-84
2023/09/17 03:53:11;;;;;;;10.30;9.60;;;15.50;78.70;;;;;;6001858;29;20241;-81
2023/09/17 03:56:14;;;;;;;10.13;9.43;;;15.50;78.70;;;;;;6015005;29;20245;-83
2023/09/17 03:59:19;;;;;;;10.40;9.80;;;15.50;78.80;;;;;;6009566;29;20249;-82
2023/09/17 04:02:24;;;;;;;10.00;9.33;;;15.50;78.80;;;;;;6000563;29;20773;-83
2023/09/17 04:05:28;;;;;;;9.97;9.37;;;15.50;78.80;;;;;;6013006;29;20237;-82
2023/09/17 04:08:31;;;;;;;9.90;9.20;;;15.50;78.90;;;;;;6009766;29;20382;-78
2023/09/17 04:11:35;;;;;;;9.83;9.17;;;15.50;78.90;;;;;;6017467;29;20255;-82
2023/09/17 04:14:38;;;;;;;10.37;9.67;;;15.50;79.00;;;;;;6005012;29;20265;-82
2023/09/17 04:17:42;;;;;;;11.83;10.87;;;15.40;79.00;;;;;;6013642;29;20394;-82
2023/09/17 04:20:45;;;;;;;11.63;10.80;;;15.40;79.00;;;;;;6003639;29;20750;-80
2023/09/17 04:23:48;;;;;;;12.00;10.93;;;15.40;79.00;;;;;;6012774;29;20339;-80
2023/09/17 04:26:52;;;;;;;11.77;10.87;;;15.40;79.00;;;;;;6003646;29;20880;-80
2023/09/17 04:29:55;;;;;;;11.43;10.53;;;15.40;79.00;;;;;;6014787;29;20252;-81
2023/09/17 04:33:01;;;;;;;11.93;11.13;;;15.30;79.10;;;;;;6012026;29;20339;-80
2023/09/17 04:36:05;;;;;;;11.53;10.53;;;15.30;79.20;;;;;;6009106;29;20261;-80
2023/09/17 04:39:09;;;;;;;11.80;10.93;;;15.30;79.30;;;;;;6014617;29;20249;-81
2023/09/17 04:42:12;;;;;;;11.50;10.60;;;15.30;79.40;;;;;;6017784;29;20920;-79
2023/09/17 04:45:32;;;;;;;12.07;11.17;;;15.30;79.40;;;;;;5994037;29;20245;-80
2023/09/17 04:48:38;;;;;;;12.17;11.23;;;15.30;79.40;;;;;;6002680;29;20241;-79
2023/09/17 04:51:41;;;;;;;12.47;11.63;;;15.20;79.40;;;;;;6006896;29;20245;-81
2023/09/17 04:54:45;;;;;;;11.97;11.17;;;15.20;79.40;;;;;;6009858;29;20237;-80
2023/09/17 04:57:48;;;;;;;12.50;11.50;;;15.20;79.50;;;;;;6011258;29;20253;-81
2023/09/17 05:00:51;;;;;;;11.63;10.83;;;15.20;79.50;;;;;;6015286;29;20245;-81
2023/09/17 05:03:56;;;;;;;11.23;10.53;;;15.30;79.50;;;;;;6022607;29;20248;-80
2023/09/17 05:07:00;;;;;;;11.47;10.77;;;15.30;79.50;;;;;;6019175;29;20226;-82
2023/09/17 05:10:03;;;;;;;13.17;12.13;;;15.30;79.60;;;;;;6012926;29;20736;-79
2023/09/17 05:13:06;;;;;;;12.20;11.30;;;15.40;79.60;;;;;;6014855;29;20277;-79
2023/09/17 05:16:10;;;;;;;13.33;12.23;;;15.40;79.70;;;;;;6005143;29;20261;-79
2023/09/17 05:19:15;;;;;;;13.53;12.43;;;15.50;79.70;;;;;;6012744;29;20241;-80
2023/09/17 05:22:18;;;;;;;13.53;12.33;;;15.50;79.70;;;;;;6020069;29;20245;-80
2023/09/17 05:25:21;;;;;;;13.53;12.43;;;15.60;79.60;;;;;;6008368;29;20728;-82
2023/09/17 05:28:25;;;;;;;13.80;12.77;;;15.70;79.50;;;;;;6018582;29;20381;-80
2023/09/17 05:31:28;;;;;;;14.13;13.13;;;15.80;79.50;;;;;;6018611;29;20328;-80
2023/09/17 05:34:33;;;;;;;13.93;12.93;;;15.80;79.40;;;;;;6010687;29;20257;-78
2023/09/17 05:37:36;;;;;;;14.17;13.17;;;15.90;79.30;;;;;;6015584;29;20245;-79
2023/09/17 05:40:39;;;;;;;13.73;12.67;;;16.00;79.30;;;;;;6014152;29;20243;-75
2023/09/17 05:43:42;;;;;;;12.90;11.80;;;16.00;79.20;;;;;;6016211;29;20640;-80
2023/09/17 05:46:45;;;;;;;14.70;13.50;;;16.10;79.10;;;;;;6010441;29;20821;-80
2023/09/17 05:49:50;;;;;;;14.10;13.00;;;16.20;79.00;;;;;;6017977;29;20247;-79
2023/09/17 05:52:53;;;;;;;14.17;12.90;;;16.30;78.90;;;;;;6013601;29;20244;-83
2023/09/17 05:55:56;;;;;;;14.83;13.63;;;16.40;78.70;;;;;;6016631;29;20817;-80
2023/09/17 05:58:59;;;;;;;13.53;12.43;;;16.50;78.50;;;;;;6016432;29;20241;-83
2023/09/17 06:02:02;;;;;;;13.33;12.33;;;16.50;78.30;;;;;;6010797;29;20244;-78
2023/09/17 06:05:07;;;;;;;14.80;13.50;;;16.60;78.20;;;;;;6016797;29;20590;-82
2023/09/17 06:08:11;;;;;;;14.73;13.63;;;16.60;77.90;;;;;;6012515;29;20711;-81
2023/09/17 06:11:14;;;;;;;12.03;11.13;;;16.60;77.80;;;;;;6014565;29;20674;-81
2023/09/17 06:14:17;;;;;;;12.27;11.40;;;16.70;77.80;;;;;;6012694;29;20275;-80
2023/09/17 06:17:20;;;;;;;10.50;9.87;;;16.80;77.70;;;;;;6004295;29;20244;-81
2023/09/17 06:20:24;;;;;;;16.63;13.40;;;16.90;77.50;;;;;;6011215;29;20243;-79
2023/09/17 06:23:28;;;;;;;14.90;13.50;;;17.00;77.20;;;;;;6009191;29;20325;-79
2023/09/17 06:26:31;;;;;;;12.87;11.77;;;17.00;77.10;;;;;;6008515;29;20709;-79
2023/09/17 06:29:34;;;;;;;12.83;11.83;;;17.00;77.10;;;;;;6007536;29;20738;-78
2023/09/17 06:32:37;;;;;;;14.43;13.13;;;17.10;77.10;;;;;;6025356;29;20343;-77
2023/09/17 06:35:42;;;;;;;13.10;12.13;;;17.20;76.80;;;;;;6011419;29;20238;-77
2023/09/17 06:38:47;;;;;;;13.00;11.90;;;17.30;76.70;;;;;;6006716;29;20245;-80
2023/09/17 06:41:50;;;;;;;10.97;10.17;;;17.40;76.60;;;;;;6010988;29;20337;-77
2023/09/17 06:44:53;;;;;;;11.50;10.70;;;17.50;76.50;;;;;;6016572;29;20241;-80
2023/09/17 06:47:56;;;;;;;11.90;11.00;;;17.50;76.30;;;;;;6012104;29;20923;-80
2023/09/17 06:51:01;;;;;;;11.60;10.80;;;17.70;76.10;;;;;;6020201;29;20257;-83
2023/09/17 06:54:05;;;;;;;12.20;11.20;;;17.70;75.70;;;;;;6012828;29;20246;-80
2023/09/17 06:57:09;;;;;;;11.50;10.53;;;17.80;75.70;;;;;;6009480;29;20237;-79
2023/09/17 07:00:14;;;;;;;11.17;10.37;;;17.90;75.50;;;;;;6010304;29;20252;-78
2023/09/17 07:03:17;;;;;;;10.80;10.10;;;18.00;75.40;;;;;;6011926;29;20723;-82
2023/09/17 07:06:22;;;;;;;11.67;10.87;;;18.20;75.10;;;;;;6006375;29;20247;-81
2023/09/17 07:09:25;;;;;;;11.40;10.70;;;18.50;74.30;;;;;;6006579;29;20910;-79
2023/09/17 07:12:28;;;;;;;11.53;10.80;;;18.60;73.90;;;;;;6006841;29;20245;-79
2023/09/17 07:15:31;;;;;;;11.23;10.47;;;18.70;73.80;;;;;;6006438;29;20253;-79
2023/09/17 07:18:35;;;;;;;14.27;13.00;;;19.00;73.30;;;;;;6009596;29;20629;-79
2023/09/17 07:21:39;;;;;;;13.00;12.00;;;19.20;72.50;;;;;;6007483;29;20283;-82
2023/09/17 07:24:42;;;;;;;12.83;11.77;;;19.30;72.30;;;;;;6003553;29;20301;-80
2023/09/17 07:27:46;;;;;;;13.07;12.07;;;19.40;72.10;;;;;;6003186;29;20256;-80
2023/09/17 07:30:54;;;;;;;12.40;11.27;;;19.50;72.00;;;;;;6002507;29;20917;-82
2023/09/17 07:33:57;;;;;;;13.83;12.73;;;19.50;71.90;;;;;;6011972;29;20617;-79
2023/09/17 07:37:04;;;;;;;12.77;11.80;;;19.50;71.20;;;;;;6014292;29;20678;-81
2023/09/17 07:40:08;;;;;;;14.63;13.30;;;19.50;71.40;;;;;;6019378;29;20244;-80
2023/09/17 07:43:11;;;;;;;12.30;11.30;;;19.50;71.20;;;;;;6020604;29;20790;-81
2023/09/17 07:46:15;;;;;;;12.37;11.33;;;19.70;71.40;;;;;;6012345;29;20252;-81
2023/09/17 07:49:18;;;;;;;12.60;11.70;;;19.70;71.20;;;;;;6010618;29;21292;-79
2023/09/17 07:52:23;;;;;;;11.67;10.77;;;19.90;71.00;;;;;;6012084;29;20245;-80
2023/09/17 07:55:27;;;;;;;12.80;11.80;;;20.00;70.80;;;;;;6006097;29;20317;-83
2023/09/17 07:58:30;;;;;;;10.40;9.60;;;20.10;70.10;;;;;;6021252;29;20240;-81
2023/09/17 08:01:33;;;;;;;13.40;12.40;;;20.30;70.10;;;;;;6014874;29;20872;-82
2023/09/17 08:04:36;;;;;;;14.53;13.33;;;20.40;69.40;;;;;;6011460;29;20256;-80
2023/09/17 08:07:41;;;;;;;12.27;11.30;;;20.50;68.20;;;;;;6006543;29;20249;-81
2023/09/17 08:10:46;;;;;;;12.20;11.33;;;20.60;68.10;;;;;;6011357;29;20252;-80
2023/09/17 08:13:49;;;;;;;14.13;12.97;;;20.60;67.90;;;;;;6009864;29;20742;-79
2023/09/17 08:16:53;;;;;;;12.93;11.93;;;20.80;67.70;;;;;;6009992;29;20239;-80
2023/09/17 08:19:56;;;;;;;13.10;12.00;;;20.80;67.60;;;;;;6009087;29;20252;-81
2023/09/17 08:23:01;;;;;;;12.47;11.50;;;20.80;67.50;;;;;;6011405;29;20233;-82
2023/09/17 08:26:05;;;;;;;14.00;12.60;;;20.90;67.80;;;;;;6008170;29;20237;-79
2023/09/17 08:29:09;;;;;;;14.63;13.27;;;21.00;67.50;;;;;;6009863;29;20667;-79
2023/09/17 08:32:13;;;;;;;11.47;10.67;;;21.10;67.10;;;;;;6013742;29;21255;-81
2023/09/17 08:35:16;;;;;;;14.30;13.10;;;21.10;67.10;;;;;;6013025;29;20791;-79
2023/09/17 08:38:21;;;;;;;12.10;11.10;;;21.20;66.70;;;;;;6010623;29;20742;-80
2023/09/17 08:41:24;;;;;;;13.27;12.03;;;21.30;66.70;;;;;;6025925;29;20249;-83
2023/09/17 08:44:31;;;;;;;12.97;11.97;;;21.40;66.50;;;;;;6015444;29;20256;-81
2023/09/17 08:47:34;;;;;;;13.50;12.30;;;21.50;66.20;;;;;;6018520;29;20280;-81
2023/09/17 08:50:38;;;;;;;14.53;13.20;;;21.60;66.50;;;;;;6014204;29;20237;-81
2023/09/17 08:54:05;;;;;;;16.67;13.53;;;21.60;65.50;;;;;;6015118;29;20335;-78
2023/09/17 08:57:11;;;;;;;12.87;11.87;;;21.70;65.30;;;;;;6012525;29;20281;-83
2023/09/17 09:00:18;;;;;;;12.27;11.37;;;21.90;65.60;;;;;;6013250;29;20291;-79
2023/09/17 09:03:23;;;;;;;11.93;11.00;;;22.00;65.50;;;;;;6016077;29;20240;-81
2023/09/17 09:06:30;;;;;;;12.80;11.60;;;22.20;65.10;;;;;;6014936;29;20236;-80
2023/09/17 09:09:36;;;;;;;12.10;11.00;;;22.40;65.00;;;;;;6019667;29;20251;-82
2023/09/17 09:12:39;;;;;;;13.50;12.37;;;22.50;64.70;;;;;;6015920;29;20259;-81
2023/09/17 09:15:42;;;;;;;12.40;11.37;;;22.60;63.80;;;;;;6010666;29;20320;-81
2023/09/17 09:18:46;;;;;;;12.63;11.70;;;22.50;63.80;;;;;;6016332;29;20241;-79
2023/09/17 09:21:49;;;;;;;13.83;11.73;;;22.50;63.50;;;;;;6019548;29;20234;-81
2023/09/17 09:24:54;;;;;;;12.80;11.67;;;22.50;64.00;;;;;;6019479;29;20605;-80
2023/09/17 09:28:00;;;;;;;12.57;11.67;;;22.60;63.90;;;;;;6019387;29;20268;-81
2023/09/17 09:31:04;;;;;;;10.13;9.43;;;22.60;63.50;;;;;;6014263;29;20241;-79
2023/09/17 09:34:07;;;;;;;11.70;10.73;;;22.70;63.80;;;;;;6017741;29;20735;-78
2023/09/17 09:37:12;;;;;;;10.87;10.17;;;22.80;63.50;;;;;;6014439;29;20392;-77
2023/09/17 09:40:16;;;;;;;10.50;9.53;;;22.90;63.40;;;;;;6016482;29;20245;-79
2023/09/17 09:43:37;;;;;;;11.20;10.27;;;23.10;63.30;;;;;;6014531;29;20314;-80
2023/09/17 09:46:40;;;;;;;11.80;10.83;;;23.20;62.80;;;;;;6018161;29;20312;-81
2023/09/17 09:49:45;;;;;;;9.03;8.53;;;23.30;62.50;;;;;;6014633;29;20340;-81
2023/09/17 09:52:49;;;;;;;9.43;8.63;;;23.50;62.20;;;;;;6011049;29;20277;-82
2023/09/17 09:55:56;;;;;;;10.37;9.60;;;23.60;62.30;;;;;;6007447;29;20303;-78
2023/09/17 09:59:01;;;;;;;9.13;8.43;;;23.80;60.80;;;;;;6014089;29;20244;-82
2023/09/17 10:02:05;;;;;;;10.87;9.77;;;24.00;61.00;;;;;;6012063;29;20746;-77
2023/09/17 10:05:12;;;;;;;8.97;8.37;;;24.10;59.10;;;;;;6015494;29;20258;-75
2023/09/17 10:08:18;;;;;;;9.87;9.17;;;24.20;59.40;;;;;;6016391;29;20237;-77
2023/09/17 10:11:23;;;;;;;9.40;8.47;;;24.30;59.70;;;;;;6012348;29;20248;-77
2023/09/17 10:14:27;;;;;;;8.97;8.37;;;24.40;58.80;;;;;;6015638;29;20260;-79
2023/09/17 10:17:33;;;;;;;7.77;7.37;;;24.60;58.70;;;;;;6014499;29;20241;-80
2023/09/17 10:20:39;;;;;;;8.00;7.50;;;24.60;58.10;;;;;;6007885;29;20245;-76
2023/09/17 10:23:42;;;;;;;7.80;7.40;;;24.80;58.40;;;;;;6021099;29;20249;-78
2023/09/17 10:26:47;;;;;;;7.63;7.23;;;25.00;57.90;;;;;;6014539;29;20244;-77
2023/09/17 10:29:51;;;;;;;7.83;7.33;;;25.10;57.40;;;;;;6011287;29;20249;-79
2023/09/17 10:32:55;;;;;;;7.43;7.13;;;25.30;56.90;;;;;;6021540;29;20394;-78
2023/09/17 10:36:00;;;;;;;7.07;6.67;;;25.30;55.40;;;;;;6018265;29;20301;-77
2023/09/17 10:39:06;;;;;;;7.87;7.37;;;25.40;56.20;;;;;;6028739;29;20249;-77
2023/09/17 10:42:12;;;;;;;7.73;7.10;;;25.50;55.70;;;;;;6023847;29;20273;-77
2023/09/17 10:45:17;;;;;;;7.30;6.77;;;25.70;56.20;;;;;;6012506;29;20245;-78
2023/09/17 10:48:23;;;;;;;7.13;6.73;;;26.00;54.80;;;;;;6009857;29;20256;-76
2023/09/17 10:51:27;;;;;;;8.27;7.77;;;26.10;54.20;;;;;;6014850;29;20631;-76
2023/09/17 10:54:31;;;;;;;6.77;6.47;;;26.10;54.00;;;;;;6016190;29;20710;-75
2023/09/17 10:57:42;;;;;;;6.50;6.20;;;26.20;54.20;;;;;;6009335;29;20731;-76
2023/09/17 11:00:47;;;;;;;6.83;6.53;;;26.40;55.30;;;;;;6015998;29;20261;-77
2023/09/17 11:03:55;;;;;;;6.77;6.47;;;26.40;54.30;;;;;;6003539;29;20250;-79
2023/09/17 11:07:00;;;;;;;6.50;6.20;;;26.60;52.90;;;;;;6008620;29;20312;-77
2023/09/17 11:10:05;;;;;;;6.30;6.10;;;26.50;53.00;;;;;;6005676;29;20245;-78
2023/09/17 11:13:25;;;;;;;7.87;7.33;;;26.50;51.80;;;;;;6004405;29;20281;-80
2023/09/17 11:16:30;;;;;;;7.60;7.20;;;26.40;53.60;;;;;;6016566;29;20772;-77
2023/09/17 11:19:34;;;;;;;7.67;7.33;;;26.40;53.70;;;;;;6012321;29;20434;-80
2023/09/17 11:22:37;;;;;;;7.30;6.80;;;26.50;53.70;;;;;;6013771;29;20237;-78
2023/09/17 11:25:41;;;;;;;7.40;6.90;;;26.50;53.20;;;;;;6011578;29;20237;-77
2023/09/17 11:28:45;;;;;;;7.80;7.30;;;26.60;53.10;;;;;;6013066;29;20256;-79
2023/09/17 11:32:03;;;;;;;6.90;6.60;;;26.70;53.50;;;;;;6013569;29;20697;-80
2023/09/17 11:35:07;;;;;;;7.30;6.90;;;26.80;52.80;;;;;;6020295;29;20240;-80
2023/09/17 11:38:10;;;;;;;7.57;7.17;;;26.90;53.50;;;;;;6018314;29;20316;-80
2023/09/17 11:41:17;;;;;;;7.00;6.70;;;26.90;52.00;;;;;;6020147;29;20275;-78
2023/09/17 11:44:23;;;;;;;8.00;7.50;;;27.00;52.60;;;;;;6015146;29;20249;-77
2023/09/17 11:47:26;;;;;;;7.10;6.70;;;27.00;51.50;;;;;;6017795;29;20348;-79
2023/09/17 11:50:30;;;;;;;6.77;6.37;;;27.00;52.10;;;;;;6008171;29;20245;-82
2023/09/17 11:53:33;;;;;;;6.50;6.20;;;27.10;51.10;;;;;;6012972;29;20249;-78
2023/09/17 11:56:47;;;;;;;6.23;5.93;;;26.90;51.20;;;;;;6000707;29;20779;-77
2023/09/17 11:59:51;;;;;;;6.17;5.87;;;26.90;52.20;;;;;;6018371;29;20311;-81
2023/09/17 12:02:54;;;;;;;7.00;6.67;;;27.20;50.90;;;;;;6013819;29;20240;-80
2023/09/17 12:05:58;;;;;;;5.67;5.30;;;26.90;51.30;;;;;;6011786;29;20772;-81
2023/09/17 12:09:07;;;;;;;6.27;6.07;;;26.70;50.70;;;;;;6003223;29;20761;-80
2023/09/17 12:12:10;;;;;;;6.93;6.27;;;26.40;51.90;;;;;;6003833;29;20240;-79
2023/09/17 12:15:15;;;;;;;6.43;6.13;;;26.10;52.90;;;;;;6006489;29;20767;-79
2023/09/17 12:18:19;;;;;;;5.97;5.77;;;25.80;52.70;;;;;;6006070;29;20256;-77
2023/09/17 12:21:25;;;;;;;6.27;5.93;;;25.80;52.50;;;;;;6013650;29;20243;-80
2023/09/17 12:24:34;;;;;;;5.43;5.23;;;25.90;52.10;;;;;;6009638;29;20370;-81
2023/09/17 12:27:46;;;;;;;5.00;4.73;;;25.90;52.40;;;;;;6006471;29;20839;-80
2023/09/17 12:30:51;;;;;;;5.03;4.83;;;26.00;50.90;;;;;;6009914;29;20245;-80
2023/09/17 12:33:54;;;;;;;5.40;5.10;;;26.10;50.50;;;;;;6009042;29;20672;-79
2023/09/17 12:36:57;;;;;;;4.80;4.70;;;26.40;50.40;;;;;;6011039;29;20288;-80
2023/09/17 12:40:01;;;;;;;6.10;5.90;;;26.60;51.10;;;;;;6014415;29;20306;-80
2023/09/17 12:43:04;;;;;;;6.67;6.33;;;26.90;51.50;;;;;;6010359;29;20265;-80
2023/09/17 12:46:09;;;;;;;5.77;5.57;;;27.10;50.60;;;;;;6007161;29;20249;-81
2023/09/17 12:49:12;;;;;;;6.00;5.70;;;27.30;50.20;;;;;;6015933;29;20251;-81
2023/09/17 12:52:16;;;;;;;5.37;5.27;;;27.40;50.00;;;;;;6015339;29;20248;-79
2023/09/17 12:55:20;;;;;;;6.03;5.53;;;27.50;50.60;;;;;;6011255;29;20249;-79
2023/09/17 12:58:24;;;;;;;7.03;6.63;;;27.60;50.70;;;;;;6009275;29;20237;-79
2023/09/17 13:01:30;;;;;;;6.60;6.00;;;27.60;49.50;;;;;;6005055;29;20729;-79
2023/09/17 13:04:35;;;;;;;6.13;5.93;;;27.40;50.50;;;;;;6015003;29;20292;-78
2023/09/17 13:07:38;;;;;;;6.60;6.10;;;27.40;50.00;;;;;;6017418;29;20253;-81
2023/09/17 13:10:41;;;;;;;6.30;6.00;;;27.50;49.80;;;;;;6014548;29;20249;-81
2023/09/17 13:13:46;;;;;;;5.60;5.30;;;27.40;49.90;;;;;;6000565;29;22185;-80
2023/09/17 13:16:50;;;;;;;6.00;5.80;;;27.30;50.10;;;;;;6009274;29;20790;-80
2023/09/17 13:19:54;;;;;;;5.17;5.07;;;27.10;50.30;;;;;;6005190;29;20236;-79
2023/09/17 13:22:58;;;;;;;5.50;5.23;;;27.00;49.70;;;;;;6005669;29;20228;-80
2023/09/17 13:26:01;;;;;;;5.20;5.10;;;27.00;50.60;;;;;;6009507;29;20240;-81
2023/09/17 13:29:05;;;;;;;6.13;5.93;;;27.00;50.50;;;;;;6006706;29;20815;-83
2023/09/17 13:32:11;;;;;;;6.23;5.93;;;26.90;51.50;;;;;;6008466;29;20305;-80
2023/09/17 13:35:19;;;;;;;5.80;5.60;;;27.00;51.20;;;;;;6021667;29;20249;-83
2023/09/17 13:38:22;;;;;;;5.63;5.53;;;27.10;51.30;;;;;;6012347;29;20256;-81
2023/09/17 13:41:28;;;;;;;6.23;5.97;;;27.20;50.90;;;;;;6015294;29;20706;-83
2023/09/17 13:44:33;;;;;;;6.37;6.07;;;27.20;51.10;;;;;;6016097;29;20710;-80
2023/09/17 13:47:38;;;;;;;5.93;5.63;;;27.30;50.30;;;;;;6013327;29;20249;-82
2023/09/17 13:50:41;;;;;;;6.17;5.97;;;27.50;50.20;;;;;;6007007;29;20244;-81
2023/09/17 13:53:44;;;;;;;5.87;5.47;;;27.50;50.40;;;;;;6021637;29;20251;-80
2023/09/17 13:56:47;;;;;;;6.10;5.57;;;27.50;49.60;;;;;;6019557;29;20329;-80
2023/09/17 13:59:52;;;;;;;5.63;5.43;;;27.70;50.00;;;;;;6012765;29;20698;-81
2023/09/17 14:02:56;;;;;;;5.47;4.93;;;27.80;49.70;;;;;;6015257;29;20240;-82
2023/09/17 14:06:00;;;;;;;5.53;5.30;;;27.80;48.90;;;;;;6012927;29;20250;-79
2023/09/17 14:09:03;;;;;;;5.53;5.27;;;27.80;49.40;;;;;;6021894;29;20248;-80
2023/09/17 14:12:08;;;;;;;4.82;4.72;;;27.90;48.90;;;;;;6004864;29;20318;-82
2023/09/17 14:15:12;;;;;;;5.22;4.93;;;28.10;48.60;;;;;;6003998;29;20265;-82
2023/09/17 14:18:16;;;;;;;5.27;5.07;;;28.20;49.10;;;;;;6007900;29;20241;-82
2023/09/17 14:21:20;;;;;;;6.22;5.85;;;28.20;48.80;;;;;;6012287;29;20320;-81
2023/09/17 14:24:23;;;;;;;5.00;4.90;;;28.20;49.30;;;;;;6009305;29;20237;-81
2023/09/17 14:27:26;;;;;;;5.05;4.95;;;28.20;48.90;;;;;;6006231;29;20241;-82
2023/09/17 14:30:29;;;;;;;4.70;4.50;;;28.10;48.80;;;;;;6008400;29;20739;-76
2023/09/17 14:33:33;;;;;;;5.25;5.07;;;28.20;48.90;;;;;;6012484;29;20241;-83
2023/09/17 14:36:37;;;;;;;5.00;4.90;;;28.10;48.60;;;;;;6008164;29;20249;-82
2023/09/17 14:39:40;;;;;;;5.03;4.72;;;28.00;48.80;;;;;;6017626;29;20798;-84
2023/09/17 14:42:43;;;;;;;5.03;4.90;;;27.90;48.60;;;;;;6019799;29;20256;-81
2023/09/17 14:45:46;;;;;;;4.70;4.60;;;27.80;48.90;;;;;;6015172;29;20240;-80
2023/09/17 14:48:52;;;;;;;4.60;4.30;;;27.70;48.70;;;;;;6010240;29;20393;-81
2023/09/17 14:51:57;;;;;;;5.17;4.90;;;27.50;48.00;;;;;;6010695;29;20661;-82
2023/09/17 14:55:00;;;;;;;4.60;4.50;;;27.30;48.20;;;;;;6010744;29;20237;-80
2023/09/17 14:58:03;;;;;;;5.47;5.07;;;27.30;49.30;;;;;;6006395;29;20401;-84
2023/09/17 15:01:06;;;;;;;4.63;4.43;;;27.20;49.00;;;;;;6008967;29;20804;-83
2023/09/17 15:04:18;;;;;;;5.20;5.10;;;27.30;49.50;;;;;;6013448;29;20236;-82
2023/09/17 15:07:22;;;;;;;5.07;4.97;;;27.30;49.50;;;;;;6020268;29;20253;-80
2023/09/17 15:10:25;;;;;;;4.40;4.30;;;27.30;49.60;;;;;;6014430;29;20237;-85
2023/09/17 15:13:28;;;;;;;5.37;5.13;;;27.20;49.80;;;;;;6012742;29;20249;-82
2023/09/17 15:16:34;;;;;;;4.83;4.70;;;27.10;49.40;;;;;;6016484;29;20278;-80
2023/09/17 15:19:39;;;;;;;5.53;5.43;;;27.00;50.20;;;;;;6017042;29;20241;-79
2023/09/17 15:22:42;;;;;;;6.23;5.93;;;26.90;50.90;;;;;;6022644;29;20248;-81
2023/09/17 15:25:45;;;;;;;5.70;5.20;;;26.60;50.90;;;;;;6007918;29;20246;-80
2023/09/17 15:28:49;;;;;;;5.77;5.57;;;26.50;51.30;;;;;;6012368;29;20238;-83
2023/09/17 15:31:54;;;;;;;6.07;5.77;;;26.40;51.60;;;;;;6011207;29;20389;-83
2023/09/17 15:34:59;;;;;;;5.90;5.60;;;26.20;51.70;;;;;;6019664;29;20323;-81
2023/09/17 15:38:06;;;;;;;6.10;5.80;;;26.00;51.50;;;;;;6007933;29;20241;-83
2023/09/17 15:41:11;;;;;;;6.50;6.20;;;25.90;52.20;;;;;;6014513;29;20249;-83
2023/09/17 15:44:14;;;;;;;5.83;5.63;;;25.80;52.30;;;;;;6009322;29;20369;-83
2023/09/17 15:47:18;;;;;;;5.93;5.67;;;25.60;53.10;;;;;;6021413;29;20252;-80
2023/09/17 15:50:23;;;;;;;6.83;6.50;;;25.50;53.40;;;;;;6012272;29;20571;-81